Terminal Aerodrome Forecast
Issued by NWS

Home | Current Version | Previous Version | Text Only | Print | Product List | Glossary On
Versions: 1 2 3 4 5 6 7 8 9 10 11 12 13 14 15 16 17
000
FTUS43 KAPX 232050 AAA
TAFTVC
TAF AMD
KTVC 232050Z 2321/2418 01007KT 5SM RA OVC007
     FM240200 35015KT 3SM RA OVC008
     FM240700 32017G25KT 2SM RA OVC008
     FM240900 30014KT 3SM RA OVC015
     FM241100 27013G21KT 3SM RA OVC015
     FM241300 24013G21KT 2SM RA OVC015
     FM241500 20013KT 2SM RA OVC015=

USA.gov is the U.S. government's official web portal to all federal, state and local government web resources and services.